Карточка аэропорта URWA

Внимание!
Информация на этой странице в стадии наполнения.
Если вы не увидели какой-то информации, или заметили неточность - пожалуйста сообщите нам!
Спасибо!
Команда XR-STAFF
Название аэропортаАстрахань
Название аэропорта (англ.)Astrakhan
Превышение-65 ft. (-19.8 m.)
Координаты46°16.998', 48°0.38399999999996'
Высота перехода3000 ft
Эшелон переходаFL50
Коды ответчика1010-1017
Зона ОрВДРостов-на-Дону РПИ (URRV)
Данные METARURWA 252230Z 22002MPS CAVOK 14/09 Q1017 R27/010070 NOSIG RMK QFE765/1020
Проноз погоды (TAF)
NOTAMshow/hide NOTAM
AWOS   TABLE

Информация о ВПП

ВПП Длина ВПП (м.) Покрытие Курс ВПП Частота ILS
111950Трава113 
291950Трава293 
093200Асфальтобетон89110.3
273200Асфальтобетон269110.5

Диспетчерские позиции

Позывной Наименование органа УВД Частота
URWA_APPАстрахань-Подход126.0
URWA_R_APPАстрахань-Круг120.6
URWA_TWRАстрахань-Вышка118.6



Спутниковое изображение